Time;durP1;ratioP1;P1;durP2;ratioP2;P2;SDS_P1;SDS_P2;PMS_P1;PMS_P2;Temp;Humidity;BMP_temperature;BMP_pressure;BME280_temperature;BME280_humidity;BME280_pressure;Samples;Min_cycle;Max_cycle;Signal;HPM_P1;HPM_P2
2023/06/13 00:01:02;;;;;;;24.65;11.27;;;19.40;99.90;;;;;;4945746;28;20454;-92
2023/06/13 00:03:29;;;;;;;23.58;12.02;;;19.50;99.90;;;;;;4961807;28;20027;-91
2023/06/13 00:06:01;;;;;;;21.85;11.85;;;19.50;99.90;;;;;;4961524;28;20042;-92
2023/06/13 00:08:31;;;;;;;18.80;10.60;;;19.50;99.90;;;;;;4961679;28;20571;-92
2023/06/13 00:10:58;;;;;;;22.05;11.90;;;19.30;99.90;;;;;;4962286;28;20031;-92
2023/06/13 00:13:25;;;;;;;22.25;11.32;;;19.30;99.90;;;;;;4945270;28;20034;-94
2023/06/13 00:15:54;;;;;;;22.83;11.57;;;19.40;99.90;;;;;;4961768;28;20038;-93
2023/06/13 00:18:22;;;;;;;25.85;13.02;;;19.30;99.90;;;;;;4944985;28;20018;-92
2023/06/13 00:20:55;;;;;;;24.27;11.50;;;19.40;99.90;;;;;;4945047;28;20061;-91
2023/06/13 00:23:26;;;;;;;21.48;12.55;;;19.30;99.90;;;;;;4961206;28;20037;-95
2023/06/13 00:25:56;;;;;;;25.80;12.25;;;19.30;99.90;;;;;;4961511;28;20085;-92
2023/06/13 00:28:23;;;;;;;21.65;13.13;;;19.30;99.90;;;;;;4945531;28;20506;-91
2023/06/13 00:30:51;;;;;;;25.40;12.77;;;19.30;99.90;;;;;;4945073;28;20065;-91
2023/06/13 00:33:18;;;;;;;24.95;14.23;;;19.40;99.90;;;;;;4945091;28;20173;-91
2023/06/13 00:35:48;;;;;;;31.63;14.85;;;19.30;99.90;;;;;;4961075;28;20031;-91
2023/06/13 00:38:17;;;;;;;28.98;14.07;;;19.40;99.90;;;;;;4941684;29;20043;-92
2023/06/13 00:40:44;;;;;;;30.95;14.00;;;19.40;99.90;;;;;;4941601;29;20031;-92
2023/06/13 00:43:12;;;;;;;27.67;14.13;;;19.30;99.90;;;;;;4957679;28;20031;-92
2023/06/13 00:45:38;;;;;;;22.52;12.63;;;19.40;99.90;;;;;;4941582;29;20036;-91
2023/06/13 00:48:06;;;;;;;20.17;12.05;;;19.30;99.90;;;;;;4941642;29;20098;-92
2023/06/13 00:50:36;;;;;;;26.30;12.90;;;19.30;99.90;;;;;;4941558;29;20043;-91
2023/06/13 00:53:16;;;;;;;23.67;12.35;;;19.20;99.90;;;;;;4941438;29;20027;-93
2023/06/13 00:55:46;;;;;;;24.45;12.60;;;19.20;99.90;;;;;;4942063;29;20027;-92
2023/06/13 00:58:15;;;;;;;24.60;13.35;;;19.20;99.90;;;;;;4941363;29;20580;-93
2023/06/13 01:00:44;;;;;;;24.88;13.45;;;19.20;99.90;;;;;;4941293;29;20556;-94
2023/06/13 01:03:14;;;;;;;28.55;14.48;;;19.20;99.90;;;;;;4941759;29;20029;-91
2023/06/13 01:05:46;;;;;;;25.63;12.82;;;19.30;99.90;;;;;;4937952;29;20441;-91
2023/06/13 01:08:20;;;;;;;25.40;12.77;;;19.30;99.90;;;;;;4921566;29;20082;-91
2023/06/13 01:10:53;;;;;;;;;;;19.30;99.90;;;;;;4922836;29;20561;-94
2023/06/13 01:13:30;;;;;;;27.35;13.55;;;19.40;99.90;;;;;;4938170;29;20269;-92
2023/06/13 01:16:11;;;;;;;29.27;14.48;;;19.40;99.90;;;;;;4923390;29;20032;-91
2023/06/13 01:18:43;;;;;;;27.70;14.52;;;19.40;99.90;;;;;;4941070;29;20122;-92
2023/06/13 01:21:12;;;;;;;32.33;14.52;;;19.40;99.90;;;;;;4956984;29;20082;-91
2023/06/13 01:23:52;;;;;;;34.22;16.80;;;19.40;99.90;;;;;;4937937;29;20027;-91
2023/06/13 01:26:49;;;;;;;30.38;14.52;;;19.40;99.90;;;;;;4937656;29;20035;-92
2023/06/13 01:29:19;;;;;;;32.42;15.48;;;19.40;99.90;;;;;;4937639;29;20042;-91
2023/06/13 01:31:48;;;;;;;34.88;15.93;;;19.40;99.90;;;;;;4937948;29;20031;-92
2023/06/13 01:34:15;;;;;;;34.78;16.23;;;19.40;99.90;;;;;;4953129;29;20043;-91
2023/06/13 01:36:42;;;;;;;35.97;16.42;;;19.40;99.90;;;;;;4942274;28;20043;-93
2023/06/13 01:39:09;;;;;;;30.23;16.20;;;19.40;99.90;;;;;;4959652;28;20038;-92
2023/06/13 01:41:36;;;;;;;35.08;16.95;;;19.40;99.90;;;;;;4943692;28;20122;-93
2023/06/13 01:44:06;;;;;;;38.88;16.42;;;19.50;99.90;;;;;;4940353;29;20037;-92
2023/06/13 01:46:57;;;;;;;37.47;16.42;;;19.40;99.90;;;;;;4939936;29;20365;-94
2023/06/13 01:49:43;;;;;;;35.90;14.70;;;19.50;99.90;;;;;;4943869;28;20031;-92
2023/06/13 01:52:34;;;;;;;36.05;15.38;;;19.40;99.90;;;;;;4940309;29;20024;-94
2023/06/13 01:55:10;;;;;;;35.95;14.95;;;19.40;99.90;;;;;;4940365;29;20043;-93
2023/06/13 01:57:49;;;;;;;30.88;14.35;;;19.40;99.90;;;;;;4924800;29;20036;-91
2023/06/13 02:00:19;;;;;;;35.08;15.77;;;19.40;99.90;;;;;;4924810;29;20047;-91
2023/06/13 02:02:46;;;;;;;34.72;15.32;;;19.40;99.90;;;;;;4924498;29;20035;-91
2023/06/13 02:05:13;;;;;;;33.13;15.00;;;19.30;99.90;;;;;;4924456;29;20062;-93
2023/06/13 02:07:40;;;;;;;35.10;15.15;;;19.40;99.90;;;;;;4924580;29;20027;-92
2023/06/13 02:10:07;;;;;;;33.92;14.25;;;19.30;99.90;;;;;;4924400;29;20038;-91
2023/06/13 02:12:36;;;;;;;39.20;14.73;;;19.30;99.90;;;;;;4925308;29;20031;-93
2023/06/13 02:15:03;;;;;;;40.78;16.48;;;19.30;99.90;;;;;;4924291;29;20425;-91
2023/06/13 02:17:31;;;;;;;37.30;14.63;;;19.30;99.90;;;;;;4924430;29;20503;-92
2023/06/13 02:19:58;;;;;;;37.38;17.38;;;19.20;99.90;;;;;;4923720;29;20489;-93
2023/06/13 02:22:25;;;;;;;43.25;15.90;;;19.20;99.90;;;;;;4924096;29;20166;-94
2023/06/13 02:24:51;;;;;;;52.53;16.02;;;19.20;99.90;;;;;;4924542;29;20035;-92
2023/06/13 02:27:18;;;;;;;51.47;16.25;;;19.20;99.90;;;;;;4925498;29;20460;-91
2023/06/13 02:29:47;;;;;;;61.45;14.55;;;19.10;99.90;;;;;;4924479;29;20059;-90
2023/06/13 02:32:13;;;;;;;67.70;15.68;;;19.10;99.90;;;;;;4943565;28;20507;-92
2023/06/13 02:34:40;;;;;;;64.10;18.00;;;19.00;99.90;;;;;;4942819;28;20042;-93
2023/06/13 02:37:08;;;;;;;83.90;16.40;;;19.00;99.90;;;;;;4955557;29;20130;-92
2023/06/13 02:39:35;;;;;;;101.82;15.90;;;19.00;99.90;;;;;;4955496;29;20035;-94
2023/06/13 02:42:02;;;;;;;97.00;16.33;;;19.00;99.90;;;;;;4955624;29;20035;-90
2023/06/13 02:44:29;;;;;;;128.80;18.42;;;19.00;99.90;;;;;;4939803;29;20448;-93
2023/06/13 02:46:56;;;;;;;73.38;17.60;;;19.00;99.90;;;;;;4955863;28;20019;-93
2023/06/13 02:49:23;;;;;;;75.47;17.77;;;19.00;99.90;;;;;;4939252;29;20031;-92
2023/06/13 02:51:50;;;;;;;47.70;16.23;;;19.00;99.90;;;;;;4955517;28;20035;-92
2023/06/13 02:54:16;;;;;;;63.05;17.67;;;19.00;99.90;;;;;;4935869;29;20042;-92
2023/06/13 02:56:43;;;;;;;59.50;16.67;;;19.10;99.90;;;;;;4928619;29;20429;-91
2023/06/13 02:59:10;;;;;;;85.88;17.25;;;19.10;99.90;;;;;;4939533;29;20090;-91
2023/06/13 03:01:36;;;;;;;57.58;17.05;;;19.10;99.90;;;;;;4955313;28;20110;-92
2023/06/13 03:04:09;;;;;;;52.03;17.23;;;19.20;99.90;;;;;;4921883;29;20031;-91
2023/06/13 03:06:36;;;;;;;76.32;18.23;;;19.20;99.90;;;;;;4955449;29;20035;-92
2023/06/13 03:09:04;;;;;;;97.25;16.50;;;19.20;99.90;;;;;;4935875;29;20031;-92
2023/06/13 03:11:32;;;;;;;57.92;16.35;;;19.10;99.90;;;;;;4936494;29;20111;-91
2023/06/13 03:13:59;;;;;;;61.25;15.88;;;19.10;99.90;;;;;;4937469;29;20111;-92
2023/06/13 03:16:27;;;;;;;45.88;15.98;;;19.10;99.90;;;;;;4955059;28;20500;-94
2023/06/13 03:18:55;;;;;;;47.13;16.38;;;19.10;99.90;;;;;;4940387;29;20059;-92
2023/06/13 03:21:23;;;;;;;50.00;15.25;;;19.10;99.90;;;;;;4939465;29;20031;-91
2023/06/13 03:23:50;;;;;;;73.00;14.13;;;19.10;99.90;;;;;;4939285;29;20424;-91
2023/06/13 03:26:17;;;;;;;77.80;15.88;;;19.00;99.90;;;;;;4929015;29;20384;-92
2023/06/13 03:28:45;;;;;;;107.38;16.25;;;19.00;99.90;;;;;;4935848;29;20034;-93
2023/06/13 03:31:12;;;;;;;83.25;14.52;;;18.90;99.90;;;;;;4920187;29;20576;-93
2023/06/13 03:33:38;;;;;;;99.93;14.98;;;18.90;99.90;;;;;;4958613;29;20074;-91
2023/06/13 03:36:13;;;;;;;45.95;14.52;;;18.90;99.90;;;;;;4943493;29;20028;-92
2023/06/13 03:38:40;;;;;;;63.85;13.93;;;18.90;99.90;;;;;;4946056;28;20047;-92
2023/06/13 03:41:07;;;;;;;74.40;15.48;;;18.90;99.90;;;;;;4961956;28;20062;-92
2023/06/13 03:43:33;;;;;;;48.40;13.98;;;19.00;99.90;;;;;;4946206;28;20026;-91
2023/06/13 03:46:00;;;;;;;48.25;14.02;;;19.00;99.90;;;;;;4945544;28;20037;-91
2023/06/13 03:48:28;;;;;;;57.63;13.68;;;19.10;99.90;;;;;;4946150;28;20038;-93
2023/06/13 03:50:57;;;;;;;58.10;14.52;;;19.10;99.90;;;;;;4961765;28;20031;-93
2023/06/13 03:53:24;;;;;;;43.05;14.77;;;19.10;99.90;;;;;;4942493;29;20035;-93
2023/06/13 03:55:51;;;;;;;44.50;13.98;;;19.20;99.90;;;;;;4937225;28;20098;-92
2023/06/13 03:58:24;;;;;;;43.50;13.52;;;19.30;99.90;;;;;;4945980;28;20027;-91
2023/06/13 04:00:54;;;;;;;51.65;14.15;;;19.40;99.90;;;;;;4961937;28;20035;-93
2023/06/13 04:03:21;;;;;;;54.60;14.80;;;19.40;99.90;;;;;;4945699;28;20027;-91
2023/06/13 04:05:49;;;;;;;60.53;14.60;;;19.50;99.90;;;;;;4961678;28;20058;-92
2023/06/13 04:08:17;;;;;;;52.33;15.32;;;19.60;99.90;;;;;;4945631;28;20034;-94
2023/06/13 04:10:43;;;;;;;51.15;13.50;;;19.70;99.90;;;;;;4945701;28;20043;-93
2023/06/13 04:13:10;;;;;;;42.78;14.40;;;19.80;99.90;;;;;;4945356;28;20101;-92
2023/06/13 04:15:37;;;;;;;46.40;14.63;;;19.90;99.90;;;;;;4961537;28;20030;-92
2023/06/13 04:18:04;;;;;;;40.72;14.15;;;20.00;99.90;;;;;;4945892;28;20045;-94
2023/06/13 04:20:34;;;;;;;35.10;13.07;;;20.00;99.90;;;;;;4961506;28;20035;-95
2023/06/13 04:23:01;;;;;;;33.58;14.55;;;20.10;99.90;;;;;;4945637;28;20031;-93
2023/06/13 04:25:28;;;;;;;38.05;13.02;;;20.20;99.90;;;;;;4938564;29;20040;-93
2023/06/13 04:27:57;;;;;;;40.42;14.32;;;20.40;99.90;;;;;;4944661;29;20035;-91
2023/06/13 04:30:25;;;;;;;36.15;14.60;;;20.40;99.90;;;;;;4941319;29;20043;-92
2023/06/13 04:32:51;;;;;;;32.78;13.65;;;20.50;99.90;;;;;;4941287;29;20034;-94
2023/06/13 04:35:21;;;;;;;35.30;14.27;;;20.50;99.90;;;;;;4940820;29;20047;-93
2023/06/13 04:37:48;;;;;;;32.60;13.60;;;20.60;99.90;;;;;;4947298;28;20046;-93
2023/06/13 04:40:16;;;;;;;31.10;13.95;;;20.70;99.90;;;;;;4922162;29;20039;-93
2023/06/13 04:42:51;;;;;;;30.33;13.35;;;21.10;99.90;;;;;;4937347;29;20063;-93
2023/06/13 04:45:20;;;;;;;28.02;13.23;;;21.20;99.90;;;;;;4921971;29;20040;-93
2023/06/13 04:47:48;;;;;;;30.80;11.95;;;21.40;99.90;;;;;;4922318;29;20031;-93
2023/06/13 04:50:15;;;;;;;28.55;13.32;;;21.50;99.90;;;;;;4922460;29;20031;-93
2023/06/13 04:52:42;;;;;;;28.15;12.70;;;21.70;99.90;;;;;;4922346;29;20129;-93
2023/06/13 04:55:09;;;;;;;19.25;10.80;;;22.00;99.90;;;;;;4922247;29;20061;-92
2023/06/13 04:57:36;;;;;;;16.52;10.43;;;23.10;99.90;;;;;;4926111;29;20178;-94
2023/06/13 05:00:14;;;;;;;15.00;10.05;;;24.50;99.90;;;;;;4926113;29;20033;-93
2023/06/13 05:02:45;;;;;;;20.65;12.80;;;25.40;99.90;;;;;;4942364;29;20035;-92
2023/06/13 05:05:16;;;;;;;16.85;15.10;;;26.20;99.90;;;;;;4942189;29;20035;-92
2023/06/13 05:07:43;;;;;;;20.23;18.13;;;27.30;99.90;;;;;;4925857;29;20118;-91
2023/06/13 05:10:12;;;;;;;19.20;17.10;;;28.40;99.90;;;;;;4941812;29;20035;-94
2023/06/13 05:12:39;;;;;;;20.70;18.65;;;29.00;99.90;;;;;;4926663;29;20027;-93
2023/06/13 05:15:08;;;;;;;19.30;17.63;;;29.20;99.90;;;;;;4941396;29;20090;-94
2023/06/13 05:17:39;;;;;;;22.30;20.13;;;28.40;99.90;;;;;;4941852;29;20056;-93
2023/06/13 05:20:07;;;;;;;21.45;19.55;;;28.20;99.90;;;;;;4925793;29;20086;-93
2023/06/13 05:22:34;;;;;;;21.88;19.88;;;28.00;99.90;;;;;;4925818;29;20038;-92
2023/06/13 05:25:04;;;;;;;21.60;19.80;;;28.60;99.90;;;;;;4941562;29;20035;-94
2023/06/13 05:27:34;;;;;;;24.00;22.05;;;28.80;99.90;;;;;;4926190;29;20062;-95
2023/06/13 05:30:09;;;;;;;24.50;22.60;;;29.20;99.90;;;;;;4941385;29;20036;-92
2023/06/13 05:32:36;;;;;;;24.10;22.20;;;29.30;99.90;;;;;;4922138;29;20035;-94
2023/06/13 05:35:03;;;;;;;25.13;22.98;;;30.00;99.90;;;;;;4921813;29;20054;-93
2023/06/13 05:37:30;;;;;;;25.58;23.27;;;30.20;99.90;;;;;;4929648;29;20047;-94
2023/06/13 05:39:57;;;;;;;24.30;22.40;;;29.90;99.90;;;;;;4941954;29;20038;-93
2023/06/13 05:42:24;;;;;;;22.98;21.23;;;29.50;99.90;;;;;;4941956;28;20077;-93
2023/06/13 05:44:50;;;;;;;24.98;22.65;;;29.00;99.90;;;;;;4942554;29;20031;-92
2023/06/13 05:47:17;;;;;;;24.73;22.58;;;28.90;99.90;;;;;;4943730;29;20488;-92
2023/06/13 05:49:44;;;;;;;23.27;21.38;;;28.80;99.90;;;;;;4941352;29;20071;-93
2023/06/13 05:52:10;;;;;;;21.65;19.95;;;28.30;99.90;;;;;;4942987;28;20110;-94
2023/06/13 05:54:37;;;;;;;21.75;20.15;;;27.60;99.90;;;;;;4940235;29;20068;-92
2023/06/13 05:57:04;;;;;;;21.20;19.70;;;27.00;99.90;;;;;;4943610;28;20473;-93
2023/06/13 05:59:30;;;;;;;21.70;19.95;;;26.60;99.90;;;;;;4943498;28;20082;-93
2023/06/13 06:01:57;;;;;;;20.45;18.85;;;26.40;99.90;;;;;;4943848;28;20030;-93
2023/06/13 06:04:25;;;;;;;20.00;18.45;;;27.10;99.90;;;;;;4943539;28;20026;-92
2023/06/13 06:06:53;;;;;;;20.10;18.70;;;27.40;99.90;;;;;;4940053;29;20035;-94
2023/06/13 06:09:20;;;;;;;21.73;19.92;;;27.80;99.90;;;;;;4940677;29;20122;-92
2023/06/13 06:11:47;;;;;;;21.70;20.10;;;27.50;99.90;;;;;;4940552;29;20480;-92
2023/06/13 06:14:13;;;;;;;20.85;19.23;;;27.70;99.90;;;;;;4942713;28;20126;-93
2023/06/13 06:16:40;;;;;;;21.80;20.08;;;28.30;99.90;;;;;;4959547;28;20042;-94
2023/06/13 06:19:07;;;;;;;20.55;19.17;;;28.90;99.90;;;;;;4943202;28;20031;-93
2023/06/13 06:21:34;;;;;;;22.27;20.40;;;28.30;99.90;;;;;;4943734;28;20081;-94
2023/06/13 06:24:01;;;;;;;22.90;20.60;;;28.20;99.90;;;;;;4943354;28;20488;-93
2023/06/13 06:26:27;;;;;;;21.33;19.75;;;28.60;99.90;;;;;;4939791;28;20420;-93
2023/06/13 06:28:54;;;;;;;22.02;20.52;;;29.00;99.90;;;;;;4943053;28;20110;-94
2023/06/13 06:31:24;;;;;;;21.88;20.20;;;29.40;99.90;;;;;;4943607;28;20043;-93
2023/06/13 06:33:51;;;;;;;22.83;21.23;;;30.10;99.90;;;;;;4942982;28;20038;-95
2023/06/13 06:36:17;;;;;;;23.17;21.35;;;30.20;99.90;;;;;;4942739;28;20018;-94
2023/06/13 06:38:44;;;;;;;22.20;20.80;;;30.30;99.90;;;;;;4939647;29;20066;-93
2023/06/13 06:41:11;;;;;;;22.73;21.33;;;30.20;99.90;;;;;;4940132;29;20027;-92
2023/06/13 06:43:37;;;;;;;23.50;21.95;;;30.40;99.90;;;;;;4955482;29;20107;-93
2023/06/13 06:46:10;;;;;;;23.45;21.60;;;30.60;99.90;;;;;;4940552;29;20114;-93
2023/06/13 06:48:39;;;;;;;25.05;23.15;;;30.60;99.90;;;;;;4939662;29;20035;-93
2023/06/13 06:51:05;;;;;;;23.42;21.92;;;31.30;99.90;;;;;;4955789;28;20035;-92
2023/06/13 14:36:25;;;;;;;15.35;14.45;;;26.30;99.90;;;;;;3328996;23;20450;-92
2023/06/13 14:39:44;;;;;;;15.20;14.27;;;26.50;99.90;;;;;;4904856;29;20044;-95
2023/06/13 14:42:19;;;;;;;15.32;14.43;;;26.60;99.90;;;;;;4902200;29;20159;-93
2023/06/13 15:18:44;;;;;;;17.85;16.35;;;27.00;99.90;;;;;;4976057;28;20047;-94
2023/06/13 15:21:20;;;;;;;17.88;16.77;;;27.00;99.90;;;;;;4946329;28;20042;-95
2023/06/13 15:24:32;;;;;;;18.02;16.73;;;27.00;99.90;;;;;;4945573;23;20044;-95
2023/06/13 15:37:44;;;;;;;17.83;16.45;;;26.60;99.90;;;;;;4998390;23;20055;-93
2023/06/13 15:40:21;;;;;;;;;;;;;;;;;;;;;
2023/06/13 15:53:02;;;;;;;;;;;;;;;;;;;;;
2023/06/13 15:56:09;;;;;;;18.30;17.02;;;26.20;99.90;;;;;;4846864;29;20086;-96
2023/06/13 16:01:49;;;;;;;18.88;17.50;;;26.20;99.90;;;;;;5071397;23;20113;-94
2023/06/13 16:08:10;;;;;;;17.30;16.20;;;26.10;99.90;;;;;;4835779;29;20046;-94
2023/06/13 16:10:39;;;;;;;17.20;16.20;;;26.10;99.90;;;;;;4825578;29;20044;-96
2023/06/13 16:13:36;;;;;;;17.88;16.75;;;26.10;99.90;;;;;;5195223;23;20047;-94
2023/06/13 16:16:24;;;;;;;17.88;16.77;;;26.00;99.90;;;;;;4957495;29;20098;-96
2023/06/13 16:19:04;;;;;;;17.85;16.65;;;26.00;99.90;;;;;;4926374;29;20032;-94
2023/06/13 16:22:27;;;;;;;;;;;;;;;;;;;;;
2023/06/13 16:28:38;;;;;;;18.05;16.75;;;25.70;99.90;;;;;;4928001;29;20046;-92
2023/06/13 16:31:05;;;;;;;18.42;17.20;;;25.60;99.90;;;;;;4939386;29;20519;-92
2023/06/13 16:33:36;;;;;;;18.98;17.40;;;25.60;99.90;;;;;;4921322;29;20083;-91
2023/06/13 16:36:03;;;;;;;18.10;17.00;;;25.50;99.90;;;;;;4904092;29;20122;-91
2023/06/13 16:38:30;;;;;;;17.90;16.55;;;25.50;99.90;;;;;;4904850;29;20024;-93
2023/06/13 16:40:56;;;;;;;17.77;16.67;;;25.50;99.90;;;;;;4906382;29;20519;-91
2023/06/13 16:43:25;;;;;;;18.10;16.90;;;25.50;99.90;;;;;;4922617;29;20102;-92
2023/06/13 16:45:52;;;;;;;17.70;16.60;;;25.50;99.90;;;;;;4922624;29;20504;-92
2023/06/13 16:48:18;;;;;;;17.27;16.23;;;25.50;99.90;;;;;;4907135;29;20575;-90
2023/06/13 16:50:45;;;;;;;17.40;16.40;;;25.50;99.90;;;;;;4922753;29;20040;-92
2023/06/13 16:53:11;;;;;;;17.17;16.17;;;25.50;99.90;;;;;;4922468;29;20032;-91
2023/06/13 16:55:38;;;;;;;17.13;16.13;;;25.50;99.90;;;;;;4922364;29;20043;-91
2023/06/13 16:58:04;;;;;;;18.05;16.85;;;25.40;99.90;;;;;;4903656;29;20114;-92
2023/06/13 17:00:31;;;;;;;17.35;16.13;;;25.40;99.90;;;;;;4888026;29;20046;-91
2023/06/13 17:03:01;;;;;;;17.85;16.70;;;25.30;99.90;;;;;;4887830;29;20101;-93
2023/06/13 17:05:27;;;;;;;17.98;16.77;;;25.20;99.90;;;;;;4887853;29;20516;-92
2023/06/13 17:07:53;;;;;;;17.85;16.73;;;25.20;99.90;;;;;;4888245;29;20120;-93
2023/06/13 17:10:20;;;;;;;18.05;16.77;;;25.10;99.90;;;;;;4888051;29;20036;-93
2023/06/13 17:12:47;;;;;;;18.23;16.85;;;25.00;99.90;;;;;;4901323;29;20055;-93
2023/06/13 17:15:13;;;;;;;17.40;16.30;;;24.90;99.90;;;;;;4922022;29;20118;-91
2023/06/13 17:17:40;;;;;;;17.50;16.33;;;24.90;99.90;;;;;;4906387;29;20075;-91
2023/06/13 17:20:07;;;;;;;17.95;16.45;;;24.70;99.90;;;;;;4906492;29;20031;-91
2023/06/13 17:22:33;;;;;;;16.83;15.82;;;24.70;99.90;;;;;;4922145;29;20043;-92
2023/06/13 17:25:00;;;;;;;17.08;15.95;;;24.60;99.90;;;;;;4903310;29;20055;-91
2023/06/13 17:27:29;;;;;;;17.08;16.00;;;24.50;99.90;;;;;;4918842;29;20036;-90
2023/06/13 17:29:55;;;;;;;17.02;15.82;;;24.30;99.90;;;;;;4918934;29;20072;-90
2023/06/13 17:32:22;;;;;;;16.88;15.57;;;24.30;99.90;;;;;;4912006;29;20111;-91
2023/06/13 17:34:48;;;;;;;16.63;15.40;;;24.20;99.90;;;;;;4887215;29;20043;-91
2023/06/13 17:37:17;;;;;;;16.17;14.90;;;24.10;99.90;;;;;;4902759;29;20064;-91
2023/06/13 17:39:44;;;;;;;16.50;15.02;;;24.00;99.90;;;;;;4886105;29;20478;-91
2023/06/13 17:42:11;;;;;;;15.80;14.65;;;24.00;99.90;;;;;;4894786;29;20100;-92
2023/06/13 17:44:37;;;;;;;15.60;14.50;;;23.90;99.90;;;;;;4886610;29;20044;-91
2023/06/13 17:47:06;;;;;;;15.77;14.68;;;23.90;99.90;;;;;;4884112;29;20494;-92
2023/06/13 17:49:32;;;;;;;15.35;14.15;;;23.80;99.90;;;;;;4883987;29;20041;-90
2023/06/13 17:51:58;;;;;;;14.85;13.82;;;23.80;99.90;;;;;;4888257;29;20081;-90
2023/06/13 17:54:25;;;;;;;14.65;13.75;;;23.70;99.90;;;;;;4899509;29;20036;-93
2023/06/13 17:56:52;;;;;;;16.27;14.85;;;23.50;99.90;;;;;;4899830;29;20135;-91
2023/06/13 17:59:20;;;;;;;14.75;13.55;;;23.50;99.90;;;;;;4899793;29;20081;-90
2023/06/13 18:01:50;;;;;;;14.02;13.02;;;23.40;99.90;;;;;;4890804;29;20040;-92
2023/06/13 18:04:17;;;;;;;14.02;13.13;;;23.30;99.90;;;;;;4899322;29;20056;-91
2023/06/13 18:06:43;;;;;;;14.35;13.35;;;23.30;99.90;;;;;;4899338;29;20028;-92
2023/06/13 18:09:10;;;;;;;14.35;13.27;;;23.20;99.90;;;;;;4899083;29;20112;-90
2023/06/13 18:11:37;;;;;;;13.70;12.70;;;23.10;99.90;;;;;;4898955;29;20032;-90
2023/06/13 18:14:07;;;;;;;14.25;12.85;;;23.00;99.90;;;;;;4899120;29;20164;-91
2023/06/13 18:16:35;;;;;;;13.38;12.38;;;23.00;99.90;;;;;;4899048;29;20036;-91
2023/06/13 18:19:04;;;;;;;13.20;12.10;;;22.90;99.90;;;;;;4899327;29;20116;-94
2023/06/13 18:21:31;;;;;;;12.45;11.65;;;22.90;99.90;;;;;;4905360;29;20105;-92
2023/06/13 18:23:58;;;;;;;12.43;11.43;;;22.80;99.90;;;;;;4887217;29;20059;-93
2023/06/13 18:26:26;;;;;;;11.93;11.05;;;22.80;99.90;;;;;;4901272;29;20064;-93
2023/06/13 18:28:52;;;;;;;12.57;11.40;;;22.80;99.90;;;;;;4917726;29;20485;-92
2023/06/13 18:31:20;;;;;;;12.25;10.95;;;22.70;99.90;;;;;;4886712;29;20119;-92
2023/06/13 18:33:50;;;;;;;11.50;10.60;;;22.70;99.90;;;;;;4905866;29;20051;-94
2023/06/13 18:36:24;;;;;;;10.95;10.25;;;22.70;99.90;;;;;;4916308;29;20050;-94
2023/06/13 18:38:50;;;;;;;;;;;22.60;99.90;;;;;;4902802;29;20032;-93
2023/06/13 18:41:42;;;;;;;10.20;9.40;;;22.60;99.90;;;;;;4902836;29;19911;-95
2023/06/13 18:50:13;;;;;;;10.68;9.65;;;22.30;99.90;;;;;;4976808;23;20051;-93
2023/06/13 18:53:35;;;;;;;9.50;8.70;;;22.30;99.90;;;;;;4964418;23;20086;-94
2023/06/13 19:09:28;;;;;;;7.72;7.10;;;22.10;99.90;;;;;;5304806;23;20053;-93
2023/06/13 19:11:58;;;;;;;7.82;7.03;;;22.10;99.90;;;;;;4866161;29;20025;-92
2023/06/13 19:14:45;;;;;;;9.30;7.65;;;22.10;99.90;;;;;;4868134;29;20041;-92
2023/06/13 19:17:12;;;;;;;7.43;6.82;;;22.00;99.90;;;;;;4867543;29;20028;-94
2023/06/13 19:19:38;;;;;;;7.40;6.70;;;22.00;99.90;;;;;;4886213;29;20125;-93
2023/06/13 19:22:07;;;;;;;10.80;6.90;;;22.00;99.90;;;;;;4886909;29;20024;-94
2023/06/13 19:24:34;;;;;;;7.60;6.90;;;22.00;99.90;;;;;;4886093;29;20032;-94
2023/06/13 19:27:01;;;;;;;8.70;7.78;;;22.00;99.90;;;;;;4885938;29;20028;-94
2023/06/13 19:29:28;;;;;;;8.57;7.68;;;22.00;99.90;;;;;;4885557;29;20047;-94
2023/06/13 19:31:54;;;;;;;10.98;7.07;;;21.90;99.90;;;;;;4885729;29;20032;-94
2023/06/13 19:34:22;;;;;;;9.05;7.03;;;21.80;99.90;;;;;;4886208;29;20119;-93
2023/06/13 19:36:48;;;;;;;7.10;6.50;;;21.80;99.90;;;;;;4885898;29;20028;-95
2023/06/13 19:39:15;;;;;;;10.15;6.97;;;21.70;99.90;;;;;;4916857;29;20044;-92
2023/06/13 19:41:43;;;;;;;9.20;7.35;;;21.70;99.90;;;;;;4896509;29;20030;-92
2023/06/13 19:44:15;;;;;;;11.70;6.65;;;21.60;99.90;;;;;;4867115;29;20035;-92
2023/06/13 19:46:42;;;;;;;8.73;6.55;;;21.50;99.90;;;;;;4883028;29;20052;-93
2023/06/13 19:49:12;;;;;;;8.07;6.35;;;21.40;99.90;;;;;;4868393;29;20025;-93
2023/06/13 19:51:42;;;;;;;7.50;5.82;;;21.40;99.90;;;;;;4871519;29;20028;-92
2023/06/13 19:54:09;;;;;;;13.10;6.97;;;21.20;99.90;;;;;;4901744;29;20032;-93
2023/06/13 19:59:37;;;;;;;12.80;7.18;;;21.10;99.90;;;;;;4920465;29;20043;-93
2023/06/13 20:02:05;;;;;;;11.05;6.38;;;20.90;99.90;;;;;;4905270;29;20036;-92
2023/06/13 20:04:31;;;;;;;8.13;6.28;;;20.90;99.90;;;;;;4904512;29;20043;-94
2023/06/13 20:06:58;;;;;;;12.90;6.53;;;20.80;99.90;;;;;;4917075;29;20551;-94
2023/06/13 20:10:25;;;;;;;9.18;6.38;;;20.80;99.90;;;;;;4942785;29;20057;-95
2023/06/13 20:12:59;;;;;;;12.13;7.15;;;20.70;99.90;;;;;;4916614;28;20576;-94
2023/06/13 20:16:01;;;;;;;10.48;5.95;;;20.70;99.90;;;;;;4928008;28;20043;-94
2023/06/13 20:18:44;;;;;;;;;;;;;;;;;;;;;
2023/06/13 20:57:38;;;;;;;8.38;5.25;;;20.60;99.90;;;;;;5654683;23;20039;-95
2023/06/13 21:00:55;;;;;;;7.22;4.88;;;20.50;99.90;;;;;;5006071;23;20059;-93
2023/06/13 21:03:40;;;;;;;7.63;4.80;;;20.30;99.90;;;;;;4920061;23;20056;-91
2023/06/13 21:06:09;;;;;;;8.20;5.05;;;20.20;99.90;;;;;;4900497;29;20041;-93
2023/06/13 22:09:22;;;;;;;8.00;4.68;;;19.50;99.90;;;;;;4937114;29;20078;-91
